Terminal Aerodrome Forecast
Issued by NWS

Home | Current Version | Previous Version | Text Only | Print | Product List | Glossary Off
Versions: 1 2 3 4 5 6 7 8 9 10 11 12 13 14 15 16 17 18 19

000
FTUS43 KICT 291731
TAFSLN
TAF
KSLN 291731Z 2918/3018 02019G27KT 3SM -SHRA OVC008
     FM300600 35015G23KT 5SM BR VCSH OVC008
     FM301200 35014G22KT P6SM OVC008
     FM301400 34015G23KT P6SM OVC010=

USA.gov is the U.S. government's official web portal to all federal, state and local government web resources and services.